createdAt,value
2018-01-14T00:01:46.706Z,86.35
2018-01-14T00:04:14.182Z,83.25
2018-01-14T00:06:41.748Z,76.68
2018-01-14T00:09:09.217Z,76.10
2018-01-14T00:11:36.690Z,79.75
2018-01-14T00:14:04.163Z,77.75
2018-01-14T00:16:31.640Z,71.35
2018-01-14T00:18:59.113Z,73.40
2018-01-14T00:21:26.591Z,69.70
2018-01-14T00:23:54.060Z,64.32
2018-01-14T00:26:21.508Z,76.22
2018-01-14T00:28:48.978Z,62.90
2018-01-14T00:31:16.505Z,72.70
2018-01-14T00:33:43.988Z,61.47
2018-01-14T00:36:11.461Z,75.45
2018-01-14T00:38:38.959Z,58.63
2018-01-14T00:41:06.422Z,69.28
2018-01-14T00:43:34.215Z,65.53
2018-01-14T00:46:01.697Z,64.28
2018-01-14T00:48:29.165Z,61.92
2018-01-14T00:50:56.628Z,60.72
2018-01-14T00:53:24.091Z,60.47
2018-01-14T00:55:51.587Z,67.72
2018-01-14T00:58:19.057Z,60.10
2018-01-14T01:00:46.547Z,60.53
2018-01-14T01:03:14.091Z,74.40
2018-01-14T01:05:41.519Z,66.78
2018-01-14T01:08:09.010Z,64.18
2018-01-14T01:10:36.494Z,71.07
2018-01-14T01:13:03.955Z,62.17
2018-01-14T01:15:31.428Z,58.53
2018-01-14T01:17:58.895Z,65.15
2018-01-14T01:20:26.348Z,62.20
2018-01-14T01:22:53.892Z,61.13
2018-01-14T01:25:20.651Z,68.05
2018-01-14T01:27:48.108Z,58.92
2018-01-14T01:30:15.648Z,60.17
2018-01-14T01:32:43.076Z,63.33
2018-01-14T01:35:10.537Z,70.93
2018-01-14T01:37:38.012Z,78.45
2018-01-14T01:40:05.473Z,70.53
2018-01-14T01:42:32.943Z,65.55
2018-01-14T01:45:00.430Z,72.43
2018-01-14T01:47:27.880Z,69.78
2018-01-14T01:49:55.347Z,70.90
2018-01-14T01:52:22.845Z,72.40
2018-01-14T01:54:50.303Z,70.07
2018-01-14T01:57:17.774Z,69.65
2018-01-14T01:59:45.244Z,61.80
2018-01-14T02:02:12.723Z,63.15
2018-01-14T02:04:40.177Z,78.62
2018-01-14T02:07:07.656Z,57.90
2018-01-14T02:09:35.103Z,66.35
2018-01-14T02:12:02.563Z,77.32
2018-01-14T02:14:30.101Z,69.05
2018-01-14T02:16:57.547Z,76.55
2018-01-14T02:19:25.007Z,71.00
2018-01-14T02:21:52.485Z,84.07
2018-01-14T02:24:19.931Z,86.40
2018-01-14T02:26:47.402Z,82.75
2018-01-14T02:29:14.868Z,89.00
2018-01-14T02:31:42.319Z,84.55
2018-01-14T02:34:09.772Z,79.40
2018-01-14T02:36:37.251Z,84.80
2018-01-14T02:39:04.719Z,83.12
2018-01-14T02:41:32.162Z,87.50
2018-01-14T02:43:59.647Z,85.05
2018-01-14T02:46:27.114Z,85.10
2018-01-14T02:48:54.572Z,86.95
2018-01-14T02:51:22.036Z,93.40
2018-01-14T02:53:49.516Z,81.65
2018-01-14T02:56:16.982Z,81.10
2018-01-14T02:58:44.448Z,82.93
2018-01-14T03:01:11.896Z,94.78
2018-01-14T03:03:39.371Z,86.87
2018-01-14T03:06:06.851Z,102.07
2018-01-14T03:08:34.304Z,95.72
2018-01-14T03:11:01.795Z,84.57
2018-01-14T03:13:29.263Z,96.00
2018-01-14T03:15:56.719Z,92.37
2018-01-14T03:18:24.173Z,91.87
2018-01-14T03:20:51.620Z,95.43
2018-01-14T03:23:19.126Z,98.53
2018-01-14T03:25:46.595Z,94.70
2018-01-14T03:28:14.078Z,101.28
2018-01-14T03:30:41.542Z,91.78
2018-01-14T03:33:09.006Z,94.10
2018-01-14T03:35:36.481Z,96.43
2018-01-14T03:38:03.966Z,89.85
2018-01-14T03:40:31.445Z,86.57
2018-01-14T03:42:58.919Z,93.90
2018-01-14T03:45:26.400Z,92.32
2018-01-14T03:47:53.856Z,97.53
2018-01-14T03:50:21.339Z,84.28
2018-01-14T03:52:48.842Z,90.12
2018-01-14T03:55:16.311Z,88.70
2018-01-14T03:57:43.799Z,85.80
2018-01-14T04:00:11.266Z,81.37
2018-01-14T04:02:38.744Z,87.32
2018-01-14T04:05:06.216Z,104.97
2018-01-14T04:07:33.664Z,95.32
2018-01-14T04:10:01.138Z,101.12
2018-01-14T04:12:28.636Z,95.90
2018-01-14T04:14:56.110Z,95.65
2018-01-14T04:17:23.579Z,106.32
2018-01-14T04:19:51.048Z,122.60
2018-01-14T04:22:18.518Z,99.80
2018-01-14T04:24:45.983Z,94.43
2018-01-14T04:27:13.468Z,96.40
2018-01-14T04:29:40.938Z,87.40
2018-01-14T04:32:08.406Z,94.00
2018-01-14T04:34:35.885Z,96.70
2018-01-14T04:37:03.345Z,99.13
2018-01-14T04:39:30.795Z,97.35
2018-01-14T04:41:58.255Z,86.12
2018-01-14T04:44:25.726Z,95.85
2018-01-14T04:46:53.173Z,88.97
2018-01-14T04:49:20.649Z,91.97
2018-01-14T04:51:48.100Z,90.30
2018-01-14T04:54:15.567Z,96.20
2018-01-14T04:56:43.035Z,100.95
2018-01-14T04:59:10.487Z,88.95
2018-01-14T05:01:37.962Z,86.50
2018-01-14T05:04:05.474Z,92.97
2018-01-14T05:06:32.969Z,92.72
2018-01-14T05:09:00.420Z,102.97
2018-01-14T05:11:27.906Z,101.75
2018-01-14T05:13:55.382Z,100.45
2018-01-14T05:16:22.830Z,100.93
2018-01-14T05:18:50.287Z,93.75
2018-01-14T05:21:17.748Z,98.20
2018-01-14T05:23:45.223Z,101.30
2018-01-14T05:26:12.721Z,100.20
2018-01-14T05:28:40.180Z,106.97
2018-01-14T05:31:07.651Z,89.47
2018-01-14T05:33:35.155Z,99.87
2018-01-14T05:36:02.646Z,101.25
2018-01-14T05:38:30.114Z,111.85
2018-01-14T05:40:57.590Z,103.32
2018-01-14T05:43:25.059Z,98.12
2018-01-14T05:45:52.539Z,95.55
2018-01-14T05:48:20.031Z,92.40
2018-01-14T05:50:47.507Z,106.55
2018-01-14T05:53:14.977Z,85.53
2018-01-14T05:55:42.466Z,94.18
2018-01-14T05:58:09.950Z,86.00
2018-01-14T06:00:37.420Z,93.18
2018-01-14T06:03:04.893Z,87.40
2018-01-14T06:05:32.367Z,89.00
2018-01-14T06:07:59.824Z,84.25
2018-01-14T06:10:27.311Z,86.65
2018-01-14T06:12:54.765Z,90.68
2018-01-14T06:15:22.216Z,90.50
2018-01-14T06:17:49.699Z,83.82
2018-01-14T06:20:17.163Z,86.10
2018-01-14T06:22:44.612Z,88.30
2018-01-14T06:25:12.077Z,86.72
2018-01-14T06:27:39.540Z,90.93
2018-01-14T06:30:07.001Z,91.25
2018-01-14T06:32:34.463Z,93.80
2018-01-14T06:35:01.934Z,90.93
2018-01-14T06:37:29.406Z,90.87
2018-01-14T06:39:56.897Z,84.30
2018-01-14T06:42:24.367Z,90.47
2018-01-14T06:44:51.826Z,84.70
2018-01-14T06:47:19.296Z,86.57
2018-01-14T06:49:46.745Z,81.63
2018-01-14T06:52:14.192Z,86.53
2018-01-14T06:54:41.679Z,89.62
2018-01-14T06:57:09.152Z,88.82
2018-01-14T06:59:36.600Z,86.53
2018-01-14T07:02:04.074Z,78.62
2018-01-14T07:04:31.539Z,80.00
2018-01-14T07:06:59.008Z,67.12
2018-01-14T07:09:26.491Z,70.65
2018-01-14T07:11:53.966Z,72.00
2018-01-14T07:14:21.439Z,87.10
2018-01-14T07:16:48.912Z,74.80
2018-01-14T07:19:16.382Z,86.50
2018-01-14T07:21:43.832Z,75.12
2018-01-14T07:24:11.316Z,67.80
2018-01-14T07:26:38.786Z,70.70
2018-01-14T07:29:06.236Z,72.18
2018-01-14T07:31:33.695Z,98.37
2018-01-14T07:34:01.142Z,81.82
2018-01-14T07:36:28.614Z,69.28
2018-01-14T07:38:56.100Z,70.97
2018-01-14T07:41:23.561Z,62.88
2018-01-14T07:43:51.036Z,71.87
2018-01-14T07:46:18.522Z,71.45
2018-01-14T07:48:45.995Z,63.63
2018-01-14T07:51:13.462Z,66.70
2018-01-14T07:53:40.942Z,66.87
2018-01-14T07:56:08.406Z,76.05
2018-01-14T07:58:35.871Z,72.22
2018-01-14T08:01:03.344Z,74.65
2018-01-14T08:03:30.824Z,66.75
2018-01-14T08:05:58.368Z,64.25
2018-01-14T08:08:25.848Z,67.45
2018-01-14T08:10:53.296Z,65.55
2018-01-14T08:13:20.752Z,68.85
2018-01-14T08:15:48.211Z,69.37
2018-01-14T08:18:15.679Z,69.80
2018-01-14T08:20:43.149Z,56.10
2018-01-14T08:23:10.618Z,67.45
2018-01-14T08:25:38.078Z,70.37
2018-01-14T08:28:05.561Z,61.08
2018-01-14T08:30:33.036Z,68.57
2018-01-14T08:33:00.513Z,68.97
2018-01-14T08:35:27.996Z,63.47
2018-01-14T08:37:55.452Z,63.15
2018-01-14T08:40:22.926Z,58.70
2018-01-14T08:42:50.862Z,69.20
2018-01-14T08:45:18.311Z,65.03
2018-01-14T08:47:45.754Z,70.18
2018-01-14T08:50:13.254Z,54.95
2018-01-14T08:52:40.722Z,59.92
2018-01-14T08:55:08.179Z,62.42
2018-01-14T08:57:35.627Z,60.75
2018-01-14T09:00:03.107Z,66.30
2018-01-14T09:02:30.591Z,67.20
2018-01-14T09:04:58.040Z,60.63
2018-01-14T09:07:25.510Z,62.38
2018-01-14T09:09:52.982Z,70.07
2018-01-14T09:12:20.451Z,61.37
2018-01-14T09:14:47.899Z,58.50
2018-01-14T09:17:15.382Z,58.97
2018-01-14T09:19:42.855Z,54.50
2018-01-14T09:22:10.327Z,55.65
2018-01-14T09:24:37.823Z,51.83
2018-01-14T09:27:05.306Z,52.20
2018-01-14T09:29:32.764Z,53.25
2018-01-14T09:32:00.250Z,56.08
2018-01-14T09:34:27.700Z,51.63
2018-01-14T09:36:55.151Z,61.85
2018-01-14T09:39:22.636Z,61.45
2018-01-14T09:41:50.102Z,58.78
2018-01-14T09:44:17.571Z,50.97
2018-01-14T09:46:45.036Z,45.15
2018-01-14T09:49:12.502Z,46.45
2018-01-14T09:51:39.978Z,45.35
2018-01-14T09:54:07.440Z,48.95
2018-01-14T09:56:34.917Z,52.28
2018-01-14T09:59:02.371Z,48.50
2018-01-14T10:01:29.840Z,46.60
2018-01-14T10:03:58.132Z,49.45
2018-01-14T10:06:25.603Z,46.35
2018-01-14T10:08:53.078Z,59.85
2018-01-14T10:11:20.543Z,53.63
2018-01-14T10:13:47.997Z,50.22
2018-01-14T10:16:15.469Z,55.97
2018-01-14T10:18:42.934Z,55.83
2018-01-14T10:21:10.389Z,53.92
2018-01-14T10:23:37.847Z,59.42
2018-01-14T10:26:05.314Z,51.22
2018-01-14T10:28:32.768Z,55.72
2018-01-14T10:31:00.256Z,55.05
2018-01-14T10:33:27.717Z,58.92
2018-01-14T10:35:55.177Z,49.45
2018-01-14T10:38:22.654Z,52.42
2018-01-14T10:40:50.122Z,53.70
2018-01-14T10:43:17.573Z,51.97
2018-01-14T10:45:45.059Z,57.13
2018-01-14T10:48:12.527Z,62.25
2018-01-14T10:50:40.070Z,57.47
2018-01-14T10:53:07.562Z,57.60
2018-01-14T10:55:35.028Z,58.70
2018-01-14T10:58:02.489Z,61.60
2018-01-14T11:00:35.507Z,62.90
2018-01-14T11:03:02.982Z,64.10
2018-01-14T11:05:30.441Z,61.22
2018-01-14T11:07:57.927Z,50.55
2018-01-14T11:10:25.399Z,52.40
2018-01-14T11:12:52.852Z,53.92
2018-01-14T11:15:20.320Z,50.25
2018-01-14T11:17:47.785Z,43.50
2018-01-14T11:20:15.254Z,45.95
2018-01-14T11:22:42.719Z,70.30
2018-01-14T11:25:10.187Z,54.90
2018-01-14T11:27:37.663Z,50.78
2018-01-14T11:30:06.763Z,43.90
2018-01-14T11:32:34.213Z,60.30
2018-01-14T11:35:01.669Z,47.78
2018-01-14T11:37:29.150Z,44.90
2018-01-14T11:39:56.595Z,51.60
2018-01-14T11:42:24.067Z,50.28
2018-01-14T11:44:51.556Z,51.63
2018-01-14T11:47:19.004Z,49.88
2018-01-14T11:49:46.478Z,51.05
2018-01-14T11:52:13.955Z,46.30
2018-01-14T11:54:41.454Z,48.75
2018-01-14T11:57:08.934Z,49.97
2018-01-14T11:59:36.411Z,47.92
2018-01-14T12:02:03.879Z,53.33
2018-01-14T12:04:31.419Z,53.40
2018-01-14T12:06:58.895Z,44.20
2018-01-14T12:09:26.377Z,52.30
2018-01-14T12:11:53.877Z,49.58
2018-01-14T12:14:21.363Z,44.83
2018-01-14T12:16:48.867Z,46.78
2018-01-14T12:19:16.371Z,47.22
2018-01-14T12:21:43.854Z,43.25
2018-01-14T12:24:11.326Z,47.97
2018-01-14T12:26:38.816Z,45.72
2018-01-14T12:29:06.299Z,43.25
2018-01-14T12:31:33.797Z,45.00
2018-01-14T12:47:40.869Z,39.50
2018-01-14T12:50:08.357Z,41.85
2018-01-14T12:52:35.843Z,39.47
2018-01-14T12:55:03.312Z,39.95
2018-01-14T12:57:30.785Z,37.00
2018-01-14T12:59:58.270Z,42.75
2018-01-14T13:02:25.732Z,43.30
2018-01-14T13:04:53.926Z,45.05
2018-01-14T13:07:21.447Z,38.42
2018-01-14T13:09:48.922Z,46.65
2018-01-14T13:12:16.401Z,46.60
2018-01-14T13:14:43.910Z,49.63
2018-01-14T13:17:11.449Z,38.33
2018-01-14T13:19:38.951Z,48.38
2018-01-14T13:22:06.448Z,42.25
2018-01-14T13:24:33.922Z,38.65
2018-01-14T13:27:01.379Z,39.92
2018-01-14T13:29:28.846Z,42.92
2018-01-14T13:31:56.335Z,35.85
2018-01-14T13:34:23.796Z,43.80
2018-01-14T13:36:51.264Z,31.65
2018-01-14T13:39:18.752Z,42.15
2018-01-14T13:41:46.239Z,39.60
2018-01-14T13:44:13.804Z,40.67
2018-01-14T13:46:41.275Z,38.25
2018-01-14T13:49:08.747Z,39.65
2018-01-14T13:51:36.239Z,38.10
2018-01-14T13:54:03.700Z,40.38
2018-01-14T13:56:31.167Z,38.65
2018-01-14T13:58:58.641Z,40.75
2018-01-14T14:01:26.119Z,32.50
2018-01-14T14:03:53.572Z,43.30
2018-01-14T14:06:21.054Z,34.13
2018-01-14T14:08:48.504Z,36.05
2018-01-14T14:11:15.979Z,33.40
2018-01-14T14:13:43.472Z,38.80
2018-01-14T14:16:10.933Z,33.80
2018-01-14T14:18:38.402Z,30.20
2018-01-14T14:21:05.872Z,32.83
2018-01-14T14:23:33.346Z,35.15
2018-01-14T14:26:00.827Z,28.73
2018-01-14T14:28:28.323Z,38.00
2018-01-14T14:30:55.813Z,32.08
2018-01-14T14:33:23.293Z,34.05
2018-01-14T14:35:50.762Z,29.70
2018-01-14T14:38:18.239Z,26.60
2018-01-14T14:40:45.722Z,29.23
2018-01-14T14:43:13.196Z,28.92
2018-01-14T14:45:40.668Z,34.45
2018-01-14T14:48:08.140Z,34.15
2018-01-14T14:50:35.608Z,33.83
2018-01-14T14:53:03.090Z,35.78
2018-01-14T14:55:30.578Z,34.45
2018-01-14T14:57:58.037Z,36.80
2018-01-14T15:00:25.510Z,42.95
2018-01-14T15:02:52.982Z,39.75
2018-01-14T15:05:20.440Z,37.95
2018-01-14T15:07:47.908Z,34.65
2018-01-14T15:10:15.356Z,35.25
2018-01-14T15:12:42.808Z,38.80
2018-01-14T15:15:10.292Z,32.75
2018-01-14T15:17:37.762Z,28.10
2018-01-14T15:20:05.213Z,38.78
2018-01-14T15:22:32.683Z,32.53
2018-01-14T15:25:00.163Z,29.30
2018-01-14T15:27:27.631Z,31.10
2018-01-14T15:29:55.096Z,37.80
2018-01-14T15:32:22.590Z,34.33
2018-01-14T15:34:50.052Z,83.07
2018-01-14T15:37:17.547Z,40.33
2018-01-14T15:39:45.029Z,35.42
2018-01-14T15:42:12.532Z,31.60
2018-01-14T15:44:40.003Z,33.25
2018-01-14T15:47:07.474Z,36.90
2018-01-14T15:49:34.956Z,31.00
2018-01-14T15:52:02.422Z,31.70
2018-01-14T15:54:29.894Z,29.92
2018-01-14T15:56:57.380Z,40.00
2018-01-14T15:59:24.855Z,28.77
2018-01-14T16:01:52.326Z,35.45
2018-01-14T16:04:19.810Z,34.33
2018-01-14T16:06:47.265Z,28.77
2018-01-14T16:09:14.735Z,27.33
2018-01-14T16:11:42.195Z,34.60
2018-01-14T16:14:09.667Z,32.47
2018-01-14T16:16:37.118Z,37.53
2018-01-14T16:19:04.580Z,29.80
2018-01-14T16:21:32.036Z,34.70
2018-01-14T16:23:59.510Z,31.65
2018-01-14T16:26:27.044Z,36.60
2018-01-14T16:28:54.468Z,36.28
2018-01-14T16:31:21.938Z,36.38
2018-01-14T16:33:49.400Z,41.25
2018-01-14T16:36:16.884Z,45.80
2018-01-14T16:38:44.335Z,40.92
2018-01-14T16:41:11.801Z,40.53
2018-01-14T16:43:39.252Z,41.08
2018-01-14T16:46:06.704Z,43.10
2018-01-14T16:48:34.185Z,36.47
2018-01-14T16:51:01.636Z,33.28
2018-01-14T16:53:29.107Z,33.67
2018-01-14T16:55:56.599Z,34.17
2018-01-14T16:58:24.052Z,37.53
2018-01-14T17:00:51.500Z,37.85
2018-01-14T17:03:18.982Z,36.30
2018-01-14T17:05:46.427Z,43.38
2018-01-14T17:08:13.886Z,38.45
2018-01-14T17:10:41.354Z,41.50
2018-01-14T17:13:08.822Z,41.42
2018-01-14T17:15:36.271Z,38.63
2018-01-14T17:18:03.759Z,47.35
2018-01-14T17:20:31.227Z,39.08
2018-01-14T17:22:58.699Z,42.78
2018-01-14T17:25:26.177Z,48.40
2018-01-14T17:27:53.624Z,44.15
2018-01-14T17:30:21.068Z,37.58
2018-01-14T17:32:48.531Z,62.72
2018-01-14T17:35:15.980Z,53.25
2018-01-14T17:37:43.455Z,49.88
2018-01-14T17:40:10.943Z,47.00
2018-01-14T17:42:38.412Z,43.45
2018-01-14T17:45:05.876Z,46.42
2018-01-14T17:47:33.372Z,49.17
2018-01-14T17:50:00.820Z,52.30
2018-01-14T17:52:28.271Z,49.70
2018-01-14T17:54:55.740Z,51.90
2018-01-14T17:57:23.202Z,46.85
2018-01-14T17:59:50.670Z,48.17
2018-01-14T18:02:18.150Z,42.92
2018-01-14T18:04:45.592Z,46.20
2018-01-14T18:07:13.048Z,47.38
2018-01-14T18:09:40.527Z,45.05
2018-01-14T18:12:07.995Z,44.78
2018-01-14T18:14:35.440Z,41.50
2018-01-14T18:17:02.909Z,48.97
2018-01-14T18:19:30.355Z,49.78
2018-01-14T18:21:57.807Z,43.13
2018-01-14T18:24:25.276Z,41.15
2018-01-14T18:26:52.729Z,37.60
2018-01-14T18:29:20.176Z,40.72
2018-01-14T18:31:47.666Z,48.22
2018-01-14T18:34:15.135Z,42.20
2018-01-14T18:36:42.599Z,48.15
2018-01-14T18:39:10.080Z,42.95
2018-01-14T18:41:37.542Z,43.63
2018-01-14T18:44:05.004Z,44.38
2018-01-14T18:46:32.468Z,40.92
2018-01-14T18:48:59.941Z,40.28
2018-01-14T18:51:27.431Z,40.92
2018-01-14T18:53:54.918Z,46.83
2018-01-14T18:56:22.383Z,41.40
2018-01-14T18:58:49.850Z,39.95
2018-01-14T19:01:17.325Z,47.50
2018-01-14T19:03:44.790Z,49.53
2018-01-14T19:06:12.256Z,46.45
2018-01-14T19:08:39.707Z,49.65
2018-01-14T19:11:07.147Z,41.63
2018-01-14T19:13:34.614Z,39.80
2018-01-14T19:16:02.065Z,44.45
2018-01-14T19:18:29.531Z,50.83
2018-01-14T19:20:56.993Z,49.40
2018-01-14T19:23:24.457Z,41.45
2018-01-14T19:25:51.908Z,46.58
2018-01-14T19:28:19.390Z,46.15
2018-01-14T19:30:46.879Z,45.42
2018-01-14T19:33:14.338Z,43.13
2018-01-14T19:35:41.809Z,49.58
2018-01-14T19:38:09.275Z,48.78
2018-01-14T19:40:36.738Z,44.90
2018-01-14T19:43:04.218Z,51.75
2018-01-14T19:45:31.672Z,43.70
2018-01-14T19:47:59.135Z,44.22
2018-01-14T19:50:26.610Z,42.75
2018-01-14T19:52:54.060Z,55.28
2018-01-14T19:55:21.522Z,45.63
2018-01-14T19:57:48.998Z,46.28
2018-01-14T20:00:16.465Z,48.95
2018-01-14T20:02:43.940Z,44.25
2018-01-14T20:05:11.426Z,46.45
2018-01-14T20:07:38.907Z,55.63
2018-01-14T20:10:06.377Z,47.42
2018-01-14T20:12:33.873Z,55.40
2018-01-14T20:15:01.347Z,60.50
2018-01-14T20:17:28.804Z,51.13
2018-01-14T20:19:56.323Z,52.35
2018-01-14T20:22:23.800Z,53.65
2018-01-14T20:24:51.259Z,49.55
2018-01-14T20:27:18.720Z,54.17
2018-01-14T20:29:46.163Z,47.55
2018-01-14T20:32:13.632Z,68.50
2018-01-14T20:34:41.096Z,54.58
2018-01-14T20:37:08.541Z,58.42
2018-01-14T20:39:35.991Z,54.60
2018-01-14T20:42:03.456Z,52.97
2018-01-14T20:44:30.926Z,56.63
2018-01-14T20:46:58.368Z,57.22
2018-01-14T20:49:25.882Z,52.80
2018-01-14T20:51:53.346Z,60.17
2018-01-14T20:54:20.818Z,59.85
2018-01-14T20:56:48.292Z,60.38
2018-01-14T20:59:15.764Z,68.62
2018-01-14T21:01:43.216Z,58.38
2018-01-14T21:04:10.672Z,61.63
2018-01-14T21:06:38.139Z,64.90
2018-01-14T21:09:05.618Z,66.47
2018-01-14T21:11:33.090Z,71.03
2018-01-14T21:14:00.548Z,68.12
2018-01-14T21:16:28.004Z,65.95
2018-01-14T21:18:55.482Z,60.88
2018-01-14T21:21:22.957Z,69.05
2018-01-14T21:23:50.422Z,66.45
2018-01-14T21:26:17.897Z,65.78
2018-01-14T21:28:45.450Z,66.90
2018-01-14T21:31:12.842Z,60.58
2018-01-14T21:33:40.325Z,58.40
2018-01-14T21:36:07.799Z,70.62
2018-01-14T21:38:35.246Z,63.75
2018-01-14T21:41:02.723Z,68.50
2018-01-14T21:43:30.171Z,69.87
2018-01-14T21:45:57.635Z,65.32
2018-01-14T21:48:25.101Z,60.47
2018-01-14T21:50:52.563Z,64.97
2018-01-14T21:53:20.010Z,72.07
2018-01-14T21:55:47.488Z,72.93
2018-01-14T21:58:14.940Z,68.50
2018-01-14T22:00:42.380Z,70.87
2018-01-14T22:03:09.844Z,75.15
2018-01-14T22:05:37.314Z,71.03
2018-01-14T22:08:04.762Z,66.65
2018-01-14T22:10:32.224Z,71.25
2018-01-14T22:12:59.683Z,65.30
2018-01-14T22:15:27.140Z,80.72
2018-01-14T22:17:54.654Z,65.18
2018-01-14T22:20:22.115Z,66.60
2018-01-14T22:22:49.609Z,71.45
2018-01-14T22:25:17.062Z,65.53
2018-01-14T22:27:44.512Z,73.65
2018-01-14T22:30:11.980Z,70.37
2018-01-14T22:32:39.428Z,67.15
2018-01-14T22:35:06.903Z,74.32
2018-01-14T22:37:34.369Z,68.05
2018-01-14T22:40:01.839Z,69.43
2018-01-14T22:42:29.283Z,74.45
2018-01-14T22:44:56.743Z,70.05
2018-01-14T22:47:24.271Z,70.25
2018-01-14T22:49:51.684Z,63.67
2018-01-14T22:52:19.183Z,66.68
2018-01-14T22:54:46.653Z,68.53
2018-01-14T22:57:14.119Z,63.63
2018-01-14T22:59:41.587Z,72.30
2018-01-14T23:02:09.054Z,66.37
2018-01-14T23:04:36.519Z,72.97
2018-01-14T23:07:03.983Z,66.68
2018-01-14T23:09:31.451Z,68.43
2018-01-14T23:11:58.907Z,79.65
2018-01-14T23:14:26.381Z,70.05
2018-01-14T23:16:53.848Z,67.25
2018-01-14T23:19:21.296Z,73.53
2018-01-14T23:21:48.774Z,75.45
2018-01-14T23:24:16.244Z,74.28
2018-01-14T23:26:43.691Z,80.70
2018-01-14T23:29:11.194Z,83.82
2018-01-14T23:31:38.639Z,71.25
2018-01-14T23:34:06.118Z,79.25
2018-01-14T23:36:33.588Z,76.47
2018-01-14T23:39:01.051Z,68.05
2018-01-14T23:41:28.559Z,84.57
2018-01-14T23:43:56.004Z,84.43
2018-01-14T23:46:23.432Z,88.30
2018-01-14T23:48:50.964Z,104.82
2018-01-14T23:51:18.443Z,88.68
2018-01-14T23:53:45.903Z,96.18
2018-01-14T23:56:13.344Z,84.20
2018-01-14T23:58:40.804Z,80.97
